createdAt,value
2023-02-11T00:02:05.766Z,62.08
2023-02-11T00:05:10.588Z,66.97
2023-02-11T00:08:17.099Z,66.57
2023-02-11T00:11:24.200Z,66.00
2023-02-11T00:14:27.597Z,61.13
2023-02-11T00:17:32.582Z,60.83
2023-02-11T00:20:35.829Z,55.90
2023-02-11T00:23:40.434Z,66.80
2023-02-11T00:26:43.604Z,58.97
2023-02-11T00:29:47.223Z,68.30
2023-02-11T00:32:50.372Z,64.25
2023-02-11T00:35:53.775Z,57.42
2023-02-11T00:38:58.074Z,58.03
2023-02-11T00:42:01.402Z,57.83
2023-02-11T00:45:04.818Z,53.15
2023-02-11T00:48:08.544Z,56.07
2023-02-11T00:51:12.522Z,61.33
2023-02-11T00:54:15.950Z,56.13
2023-02-11T00:57:19.466Z,59.70
2023-02-11T01:00:22.971Z,62.17
2023-02-11T01:03:26.858Z,61.15
2023-02-11T01:06:32.080Z,65.00
2023-02-11T01:09:38.604Z,59.60
2023-02-11T01:12:43.700Z,65.65
2023-02-11T01:15:46.906Z,60.12
2023-02-11T01:18:50.636Z,55.87
2023-02-11T01:21:53.828Z,51.88
2023-02-11T01:24:58.149Z,58.47
2023-02-11T01:28:01.524Z,53.70
2023-02-11T01:31:07.548Z,59.70
2023-02-11T01:34:10.814Z,58.47
2023-02-11T01:37:14.286Z,64.45
2023-02-11T01:40:18.164Z,80.30
2023-02-11T01:43:22.048Z,57.70
2023-02-11T01:46:36.047Z,57.38
2023-02-11T01:49:47.664Z,61.23
2023-02-11T01:52:51.876Z,60.03
2023-02-11T01:56:15.326Z,58.78
2023-02-11T01:59:26.116Z,60.00
2023-02-11T02:02:37.025Z,61.40
2023-02-11T02:05:44.575Z,61.83
2023-02-11T02:08:55.674Z,70.25
2023-02-11T02:11:59.167Z,69.70
2023-02-11T02:15:27.037Z,66.00
2023-02-11T02:19:01.543Z,59.03
2023-02-11T02:22:40.409Z,57.23
2023-02-11T02:26:04.598Z,65.40
2023-02-11T02:29:26.686Z,65.20
2023-02-11T02:32:41.986Z,74.37
2023-02-11T02:36:05.807Z,58.58
2023-02-11T02:39:22.731Z,54.83
2023-02-11T02:42:27.092Z,68.28
2023-02-11T02:45:31.805Z,65.85
2023-02-11T02:48:35.892Z,55.80
2023-02-11T02:51:45.409Z,58.38
2023-02-11T02:55:04.259Z,65.13
2023-02-11T02:58:25.833Z,59.65
2023-02-11T03:01:50.224Z,56.25
2023-02-11T03:05:18.211Z,57.77
2023-02-11T03:08:29.211Z,64.15
2023-02-11T03:11:34.860Z,66.47
2023-02-11T03:14:40.694Z,53.50
2023-02-11T03:17:47.462Z,62.75
2023-02-11T03:20:53.477Z,66.43
2023-02-11T03:24:00.699Z,49.22
2023-02-11T03:27:20.572Z,50.80
2023-02-11T03:30:36.087Z,48.03
2023-02-11T03:34:02.429Z,53.25
2023-02-11T03:37:19.491Z,44.37
2023-02-11T03:40:26.830Z,49.78
2023-02-11T03:43:35.817Z,58.92
2023-02-11T03:46:43.040Z,62.05
2023-02-11T03:49:49.862Z,47.97
2023-02-11T03:52:55.700Z,57.00
2023-02-11T03:56:03.369Z,54.50
2023-02-11T03:59:06.540Z,47.07
2023-02-11T04:02:10.075Z,56.00
2023-02-11T04:05:16.154Z,44.33
2023-02-11T04:08:19.411Z,54.20
2023-02-11T04:11:23.139Z,44.97
2023-02-11T04:14:26.275Z,53.00
2023-02-11T04:17:29.748Z,47.47
2023-02-11T04:20:33.148Z,48.90
2023-02-11T04:23:36.813Z,42.10
2023-02-11T04:26:40.239Z,45.78
2023-02-11T04:29:43.682Z,55.63
2023-02-11T04:32:47.265Z,47.45
2023-02-11T04:35:51.309Z,53.83
2023-02-11T04:38:54.484Z,52.27
2023-02-11T04:41:58.008Z,35.55
2023-02-11T04:45:01.917Z,45.35
2023-02-11T04:48:05.766Z,50.40
2023-02-11T04:51:09.011Z,50.40
2023-02-11T04:54:12.828Z,53.05
2023-02-11T04:57:16.089Z,52.55
2023-02-11T05:00:19.912Z,40.60
2023-02-11T05:03:23.096Z,47.30
2023-02-11T05:06:26.864Z,46.95
2023-02-11T05:09:30.431Z,49.03
2023-02-11T05:12:34.041Z,43.55
2023-02-11T05:15:37.256Z,43.28
2023-02-11T05:18:43.272Z,46.67
2023-02-11T05:22:00.445Z,57.40
2023-02-11T05:25:05.201Z,41.78
2023-02-11T05:28:08.383Z,56.95
2023-02-11T05:31:14.699Z,63.87
2023-02-11T05:34:18.381Z,52.92
2023-02-11T05:37:21.834Z,59.85
2023-02-11T05:40:25.026Z,51.33
2023-02-11T05:43:28.479Z,60.53
2023-02-11T05:46:31.673Z,55.42
2023-02-11T05:49:36.718Z,49.67
2023-02-11T05:52:39.963Z,54.05
2023-02-11T05:55:44.428Z,42.00
2023-02-11T05:58:47.472Z,54.10
2023-02-11T06:01:51.600Z,45.40
2023-02-11T06:04:55.094Z,48.87
2023-02-11T06:07:58.683Z,52.33
2023-02-11T06:11:02.089Z,44.63
2023-02-11T06:14:05.473Z,55.92
2023-02-11T06:17:09.205Z,47.35
2023-02-11T06:20:12.614Z,65.03
2023-02-11T06:23:16.107Z,46.92
2023-02-11T06:26:21.888Z,55.60
2023-02-11T06:29:25.425Z,53.80
2023-02-11T06:32:43.483Z,64.40
2023-02-11T06:35:47.649Z,53.55
2023-02-11T06:38:51.465Z,61.70
2023-02-11T06:41:55.247Z,59.03
2023-02-11T06:44:58.558Z,63.05
2023-02-11T06:48:02.139Z,41.65
2023-02-11T06:51:10.284Z,90.38
2023-02-11T06:54:13.694Z,78.15
2023-02-11T06:57:16.939Z,140.52
2023-02-11T07:00:20.841Z,97.72
2023-02-11T07:03:23.963Z,83.23
2023-02-11T07:06:28.274Z,74.32
2023-02-11T07:09:32.652Z,80.03
2023-02-11T07:12:36.108Z,82.47
2023-02-11T07:15:39.734Z,95.32
2023-02-11T07:18:43.882Z,77.18
2023-02-11T07:21:48.778Z,80.00
2023-02-11T07:24:52.217Z,93.78
2023-02-11T07:27:55.450Z,89.20
2023-02-11T07:30:59.013Z,89.60
2023-02-11T07:34:03.011Z,85.27
2023-02-11T07:37:06.525Z,90.57
2023-02-11T07:40:10.548Z,87.70
2023-02-11T07:43:14.075Z,85.67
2023-02-11T07:46:25.493Z,84.70
2023-02-11T07:49:29.771Z,84.53
2023-02-11T07:52:33.058Z,96.70
2023-02-11T07:55:36.411Z,95.28
2023-02-11T07:58:42.283Z,98.53
2023-02-11T08:01:45.875Z,102.12
2023-02-11T08:04:49.437Z,100.63
2023-02-11T08:07:54.037Z,106.37
2023-02-11T08:10:57.883Z,101.62
2023-02-11T08:14:01.429Z,94.77
2023-02-11T08:17:05.482Z,104.57
2023-02-11T08:20:08.963Z,103.95
2023-02-11T08:23:12.538Z,105.12
2023-02-11T08:26:21.742Z,105.47
2023-02-11T08:29:27.441Z,104.63
2023-02-11T08:32:30.635Z,113.07
2023-02-11T08:35:37.101Z,104.80
2023-02-11T08:38:41.928Z,102.60
2023-02-11T08:41:49.903Z,93.22
2023-02-11T08:44:52.946Z,88.43
2023-02-11T08:47:57.104Z,85.35
2023-02-11T08:51:00.604Z,81.40
2023-02-11T08:54:04.556Z,81.72
2023-02-11T08:57:07.929Z,78.03
2023-02-11T09:00:11.985Z,87.20
2023-02-11T09:03:15.716Z,88.35
2023-02-11T09:06:20.524Z,82.97
2023-02-11T09:09:24.441Z,78.90
2023-02-11T09:12:28.158Z,80.87
2023-02-11T09:15:31.031Z,76.37
2023-02-11T09:18:34.611Z,77.03
2023-02-11T09:21:37.763Z,77.65
2023-02-11T09:24:41.548Z,83.05
2023-02-11T09:27:44.760Z,80.12
2023-02-11T09:30:49.504Z,82.18
2023-02-11T09:33:55.318Z,84.07
2023-02-11T09:36:58.669Z,79.00
2023-02-11T09:40:02.249Z,70.15
2023-02-11T09:43:19.576Z,72.05
2023-02-11T09:46:24.804Z,72.53
2023-02-11T09:49:50.836Z,72.25
2023-02-11T09:53:04.865Z,66.37
2023-02-11T09:56:14.296Z,63.00
2023-02-11T09:59:17.808Z,59.53
2023-02-11T10:02:32.523Z,87.15
2023-02-11T10:05:42.011Z,74.25
2023-02-11T10:09:22.773Z,68.70
2023-02-11T10:12:35.394Z,65.12
2023-02-11T10:15:47.744Z,73.65
2023-02-11T10:19:17.198Z,65.90
2023-02-11T10:22:28.641Z,77.37
2023-02-11T10:25:39.770Z,57.20
2023-02-11T10:28:46.690Z,55.50
2023-02-11T10:31:51.761Z,63.75
2023-02-11T10:35:02.118Z,59.13
2023-02-11T10:38:05.764Z,64.22
2023-02-11T10:41:22.815Z,59.37
2023-02-11T10:44:34.130Z,61.00
2023-02-11T10:47:40.583Z,56.35
2023-02-11T10:50:45.028Z,54.00
2023-02-11T10:53:51.222Z,53.67
2023-02-11T10:57:00.451Z,53.95
2023-02-11T11:00:24.503Z,65.62
2023-02-11T11:03:34.558Z,53.53
2023-02-11T11:06:37.952Z,47.35
2023-02-11T11:09:53.158Z,48.15
2023-02-11T11:12:56.481Z,53.57
2023-02-11T11:16:28.481Z,45.67
2023-02-11T11:19:33.278Z,47.78
2023-02-11T11:22:36.907Z,51.90
2023-02-11T11:25:43.906Z,41.72
2023-02-11T11:28:47.337Z,45.75
2023-02-11T11:31:57.078Z,51.50
2023-02-11T11:35:20.606Z,42.58
2023-02-11T11:38:24.693Z,43.63
2023-02-11T11:41:33.763Z,43.47
2023-02-11T11:44:39.977Z,45.85
2023-02-11T11:47:54.653Z,46.70
2023-02-11T11:51:01.495Z,41.25
2023-02-11T11:54:12.487Z,50.78
2023-02-11T11:57:21.310Z,40.50
2023-02-11T12:00:44.672Z,41.97
2023-02-11T12:04:14.525Z,39.63
2023-02-11T12:07:35.166Z,46.25
2023-02-11T12:10:41.801Z,37.13
2023-02-11T12:14:01.108Z,36.75
2023-02-11T12:17:13.547Z,39.10
2023-02-11T12:20:32.252Z,31.67
2023-02-11T12:23:44.752Z,34.42
2023-02-11T12:27:05.468Z,38.45
2023-02-11T12:30:27.388Z,35.83
2023-02-11T12:34:02.199Z,33.85
2023-02-11T12:37:18.345Z,35.45
2023-02-11T12:40:40.996Z,34.22
2023-02-11T12:43:46.101Z,39.38
2023-02-11T12:46:58.149Z,34.53
2023-02-11T12:50:23.087Z,31.52
2023-02-11T12:53:39.636Z,31.70
2023-02-11T12:57:06.963Z,31.95
2023-02-11T13:00:25.219Z,31.30
2023-02-11T13:03:35.340Z,30.52
2023-02-11T13:06:46.969Z,28.38
2023-02-11T13:10:12.331Z,30.30
2023-02-11T13:13:23.855Z,31.93
2023-02-11T13:16:40.755Z,33.03
2023-02-11T13:19:53.425Z,29.98
2023-02-11T13:23:08.641Z,36.30
2023-02-11T13:26:28.072Z,27.47
2023-02-11T13:30:09.624Z,28.23
2023-02-11T13:33:16.653Z,25.52
2023-02-11T13:36:28.433Z,27.80
2023-02-11T13:39:32.532Z,26.63
2023-02-11T13:42:52.530Z,27.05
2023-02-11T13:46:03.871Z,36.80
2023-02-11T13:49:23.457Z,24.25
2023-02-11T13:52:37.937Z,23.07
2023-02-11T13:55:46.457Z,26.42
2023-02-11T13:58:52.133Z,26.75
2023-02-11T14:02:17.810Z,26.67
2023-02-11T14:05:47.424Z,26.60
2023-02-11T14:09:10.734Z,26.53
2023-02-11T14:12:41.667Z,25.83
2023-02-11T14:15:46.779Z,25.65
2023-02-11T14:18:57.154Z,14.95
2023-02-11T14:22:06.816Z,22.60
2023-02-11T14:25:25.987Z,26.62
2023-02-11T14:28:34.571Z,22.92
2023-02-11T14:32:06.043Z,22.05
2023-02-11T14:35:15.706Z,21.40
2023-02-11T14:38:55.588Z,24.40
2023-02-11T14:42:03.988Z,21.23
2023-02-11T14:45:11.414Z,22.90
2023-02-11T14:48:18.314Z,26.65
2023-02-11T14:51:28.870Z,21.92
2023-02-11T14:54:34.521Z,28.85
2023-02-11T14:57:40.081Z,23.27
2023-02-11T15:01:15.013Z,25.90
2023-02-11T15:04:32.347Z,25.15
2023-02-11T15:07:36.616Z,24.05
2023-02-11T15:10:45.882Z,21.83
2023-02-11T15:13:50.758Z,27.33
2023-02-11T15:17:06.844Z,24.58
2023-02-11T15:20:22.424Z,30.35
2023-02-11T15:23:31.448Z,33.13
2023-02-11T15:26:38.754Z,30.83
2023-02-11T15:29:46.920Z,30.88
2023-02-11T15:33:03.552Z,29.83
2023-02-11T15:36:13.293Z,31.20
2023-02-11T15:39:34.487Z,32.85
2023-02-11T15:42:52.392Z,27.70
2023-02-11T15:46:03.331Z,32.97
2023-02-11T15:49:19.690Z,33.10
2023-02-11T15:52:27.745Z,31.02
2023-02-11T15:55:33.863Z,29.85
2023-02-11T15:58:41.457Z,28.53
2023-02-11T16:01:47.636Z,29.27
2023-02-11T16:04:56.279Z,36.25
2023-02-11T16:08:02.205Z,33.15
2023-02-11T16:11:11.049Z,34.22
2023-02-11T16:14:42.739Z,34.17
2023-02-11T16:17:47.731Z,31.08
2023-02-11T16:20:54.703Z,33.67
2023-02-11T16:24:02.327Z,35.35
2023-02-11T16:27:25.019Z,34.47
2023-02-11T16:30:37.655Z,40.50
2023-02-11T16:33:43.272Z,42.33
2023-02-11T16:36:49.623Z,34.50
2023-02-11T16:40:00.135Z,35.53
2023-02-11T16:43:05.586Z,37.07
2023-02-11T16:46:18.740Z,37.00
2023-02-11T16:49:30.212Z,36.15
2023-02-11T16:52:37.433Z,36.20
2023-02-11T16:55:44.453Z,41.58
2023-02-11T16:58:51.498Z,36.78
2023-02-11T17:01:58.260Z,40.25
2023-02-11T17:05:07.134Z,42.62
2023-02-11T17:08:12.739Z,32.08
2023-02-11T17:11:18.149Z,36.03
2023-02-11T17:14:24.218Z,29.23
2023-02-11T17:17:31.563Z,31.52
2023-02-11T17:20:36.978Z,32.13
2023-02-11T17:23:41.888Z,31.77
2023-02-11T17:26:46.779Z,27.45
2023-02-11T17:29:53.894Z,33.80
2023-02-11T17:32:59.592Z,32.15
2023-02-11T17:36:09.670Z,34.60
2023-02-11T17:39:15.421Z,32.15
2023-02-11T17:42:20.430Z,34.53
2023-02-11T17:45:25.116Z,34.27
2023-02-11T17:48:29.045Z,33.20
2023-02-11T17:51:39.779Z,35.28
2023-02-11T17:54:44.719Z,31.53
2023-02-11T17:57:49.624Z,34.88
2023-02-11T18:00:59.714Z,38.42
2023-02-11T18:04:05.671Z,30.17
2023-02-11T18:07:12.997Z,30.08
2023-02-11T18:10:20.155Z,30.12
2023-02-11T18:13:25.685Z,28.58
2023-02-11T18:16:31.128Z,30.30
2023-02-11T18:19:36.810Z,32.35
2023-02-11T18:22:45.150Z,34.78
2023-02-11T18:25:50.299Z,33.23
2023-02-11T18:28:58.427Z,31.00
2023-02-11T18:32:04.572Z,36.90
2023-02-11T18:35:16.161Z,35.50
2023-02-11T18:38:23.739Z,31.42
2023-02-11T18:41:31.394Z,32.45
2023-02-11T18:44:38.246Z,35.60
2023-02-11T18:47:44.605Z,36.63
2023-02-11T18:50:52.239Z,36.78
2023-02-11T18:53:58.013Z,38.50
2023-02-11T18:57:02.850Z,37.13
2023-02-11T19:00:12.669Z,33.33
2023-02-11T19:03:18.380Z,38.60
2023-02-11T19:06:27.957Z,37.47
2023-02-11T19:09:33.590Z,38.97
2023-02-11T19:12:39.453Z,37.38
2023-02-11T19:15:46.560Z,44.28
2023-02-11T19:18:51.835Z,46.07
2023-02-11T19:21:58.660Z,49.28
2023-02-11T19:25:03.962Z,43.30
2023-02-11T19:28:09.644Z,37.53
2023-02-11T19:31:15.220Z,42.65
2023-02-11T19:34:21.737Z,43.47
2023-02-11T19:37:27.393Z,46.13
2023-02-11T19:40:33.446Z,38.37
2023-02-11T19:43:44.226Z,39.35
2023-02-11T19:46:52.973Z,36.03
2023-02-11T19:49:58.673Z,30.77
2023-02-11T19:53:03.655Z,33.05
2023-02-11T19:56:11.935Z,32.90
2023-02-11T19:59:17.851Z,31.10
2023-02-11T20:02:23.025Z,31.67
2023-02-11T20:05:37.810Z,32.38
2023-02-11T20:08:45.131Z,30.05
2023-02-11T20:11:52.507Z,41.20
2023-02-11T20:15:00.206Z,31.85
2023-02-11T20:18:05.467Z,31.90
2023-02-11T20:21:14.081Z,27.47
2023-02-11T20:24:21.794Z,26.48
2023-02-11T20:27:29.173Z,28.02
2023-02-11T20:30:34.002Z,32.10
2023-02-11T20:33:41.966Z,30.12
2023-02-11T20:36:54.914Z,26.77
2023-02-11T20:40:01.704Z,33.58
2023-02-11T20:43:07.479Z,31.87
2023-02-11T20:46:15.229Z,29.92
2023-02-11T20:49:25.453Z,29.65
2023-02-11T20:52:30.305Z,28.87
2023-02-11T20:55:38.947Z,28.92
2023-02-11T20:58:44.216Z,27.35
2023-02-11T21:01:53.934Z,31.45
2023-02-11T21:04:58.935Z,27.50
2023-02-11T21:08:05.514Z,29.05
2023-02-11T21:11:11.049Z,29.17
2023-02-11T21:14:17.088Z,29.37
2023-02-11T21:17:22.567Z,32.90
2023-02-11T21:20:29.094Z,28.08
2023-02-11T21:23:36.524Z,26.45
2023-02-11T21:26:42.746Z,29.50
2023-02-11T21:29:54.065Z,28.62
2023-02-11T21:33:00.270Z,28.73
2023-02-11T21:36:08.345Z,28.23
2023-02-11T21:39:14.467Z,27.55
2023-02-11T21:42:20.707Z,33.13
2023-02-11T21:45:28.289Z,30.07
2023-02-11T21:48:31.947Z,28.05
2023-02-11T21:51:38.125Z,29.55
2023-02-11T21:54:42.795Z,33.50
2023-02-11T21:57:49.811Z,31.00
2023-02-11T22:00:54.439Z,30.48
2023-02-11T22:03:59.306Z,29.87
2023-02-11T22:07:03.482Z,29.30
2023-02-11T22:10:08.471Z,29.83
2023-02-11T22:13:12.410Z,32.45
2023-02-11T22:16:21.795Z,29.90
2023-02-11T22:19:25.590Z,30.35
2023-02-11T22:22:29.500Z,25.05
2023-02-11T22:25:32.653Z,26.75
2023-02-11T22:28:39.332Z,30.15
2023-02-11T22:31:43.029Z,28.20
2023-02-11T22:34:46.644Z,26.42
2023-02-11T22:37:49.777Z,30.50
2023-02-11T22:40:53.413Z,26.35
2023-02-11T22:43:56.914Z,29.35
2023-02-11T22:47:00.473Z,29.93
2023-02-11T22:50:04.037Z,25.42
2023-02-11T22:53:08.810Z,26.90
2023-02-11T22:56:15.796Z,30.90
2023-02-11T22:59:21.476Z,33.42
2023-02-11T23:02:26.026Z,27.58
2023-02-11T23:05:29.592Z,29.10
2023-02-11T23:08:33.747Z,28.00
2023-02-11T23:11:39.904Z,30.37
2023-02-11T23:14:44.327Z,27.30
2023-02-11T23:17:47.764Z,24.97
2023-02-11T23:20:50.994Z,27.87
2023-02-11T23:23:59.657Z,26.05
2023-02-11T23:27:03.526Z,28.70
2023-02-11T23:30:08.393Z,27.65
2023-02-11T23:33:11.635Z,31.33
2023-02-11T23:36:16.037Z,28.40
2023-02-11T23:39:19.757Z,28.43
2023-02-11T23:42:23.581Z,30.20
2023-02-11T23:45:27.347Z,28.75
2023-02-11T23:48:31.254Z,27.57
2023-02-11T23:51:34.454Z,29.40
2023-02-11T23:54:37.910Z,31.15
2023-02-11T23:57:41.137Z,27.95
